Nearby METAR Reports

 

KISP - Islip, New York, USA
Distance from station: SW 4mi, 6km
Updated: Tue, 08/20/2019 4:56 pm EDT
Partly cloudy
Partly cloudy
 Wind from S
Wind: S 10 mph , 17 km/h
Temperature: 84°F , 29°C
Heat Index: 85°F , 29°C
Dew Point: 63°F , 17°C
Humidity: 48%
Barometer: 30.06 inHg , 1017.9 hPa
Clouds: Partly cloudy
Visibility: 10 miles , 16 km
Cloud details: Partly cloudy 25000 ft
2019/08/20 20:56 KISP 202056Z 19009KT 10SM SCT250 29/17 A3006 RMK AO2 SLP179 T02890172 58006
KHWV - Shirley, New York, USA
Distance from station: E 10mi, 16km
Updated: Tue, 08/20/2019 4:56 pm EDT
Clear
Clear
 Wind from SSW
Wind: SSW 8 mph , 13 km/h
Temperature: 84°F , 29°C
Heat Index: 84°F , 29°C
Dew Point: 61°F , 16°C
Humidity: 45%
Barometer: 30.07 inHg , 1018.3 hPa
Clouds: Clear
Visibility: 10 miles , 16 km
2019/08/20 20:56 KHWV 202056Z AUTO 20007KT 10SM CLR 29/16 A3007 RMK AO2 SLP180 T02890156 58005
 
KFRG - Farmingdale, New York, USA
Distance from station: WSW 20mi, 33km
Updated: Tue, 08/20/2019 4:53 pm EDT
Clear
Clear
 Wind from S
Wind: S 13 mph , 20 km/h
Temperature: 82°F , 28°C
Heat Index: 83°F , 28°C
Dew Point: 63°F , 17°C
Humidity: 51%
Barometer: 30.07 inHg , 1018.3 hPa
Clouds: Clear
Visibility: 10 miles , 16 km
2019/08/20 20:53 KFRG 202053Z 18011KT 10SM CLR 28/17 A3007 RMK AO2 SLP181 T02830172 58007
KBDR - Bridgeport, Connecticut, USA
Distance from station: N 23mi, 37km
Updated: Tue, 08/20/2019 4:52 pm EDT
Clear
Clear
 Wind from SSW
Wind: SSW 8 mph , 13 km/h
Temperature: 84°F , 29°C
Heat Index: 85°F , 29°C
Dew Point: 63°F , 17°C
Humidity: 48%
Barometer: 30.05 inHg , 1017.6 hPa
Clouds: Clear
Visibility: 10 miles , 16 km
2019/08/20 20:52 KBDR 202052Z 20007KT 10SM CLR 29/17 A3005 RMK AO2 SLP175 T02940172 58009
 
KFOK - Westhampton Beac, New York, USA
Distance from station: E 23mi, 37km
Updated: Tue, 08/20/2019 4:53 pm EDT
Clear
Clear
 Wind from SE
Wind: SE 8 mph , 13 km/h
Temperature: 84°F , 29°C
Heat Index: 84°F , 29°C
Dew Point: 61°F , 16°C
Humidity: 45%
Barometer: 30.08 inHg , 1018.6 hPa
Clouds: Clear
Visibility: 10 miles , 16 km
2019/08/20 20:53 KFOK 202053Z 14007KT 10SM CLR 29/16 A3008 RMK AO2 SLP185 T02890156 58006
KHVN - New Haven/Tweed, Connecticut, USA
Distance from station: NNE 31mi, 50km
Updated: Tue, 08/20/2019 4:53 pm EDT
Few Clouds
Few Clouds
 Wind from SSW
Wind: SSW 8 mph , 13 km/h
Temperature: 84°F , 29°C
Heat Index: 86°F , 30°C
Dew Point: 66°F , 19°C
Humidity: 55%
Barometer: 30.06 inHg , 1017.9 hPa
Clouds: Few Clouds
Visibility: 10 miles , 16 km
Cloud details: Few Clouds 5000 ft
Few Clouds 25000 ft
2019/08/20 20:53 KHVN 202053Z 21007KT 10SM FEW050 FEW250 29/19 A3006 RMK AO2 SLP178 T02940189 58007
 
KHPN - White Plains, New York, USA
Distance from station: WNW 37mi, 60km
Updated: Tue, 08/20/2019 4:56 pm EDT
Few Clouds
Few Clouds
 Wind from S
Wind: S 7 mph , 11 km/h
Temperature: 84°F , 29°C
Heat Index: 85°F , 29°C
Dew Point: 64°F , 18°C
Humidity: 51%
Barometer: 30.06 inHg , 1017.9 hPa
Clouds: Few Clouds
Visibility: 10 miles , 16 km
Cloud details: Few Clouds 5000 ft
2019/08/20 20:56 KHPN 202056Z 18006KT 10SM FEW050 29/18 A3006 RMK AO2 SLP173 T02940178 $
KJFK - Nyc/Jfk Arpt, New York, USA
Distance from station: WSW 40mi, 64km
Updated: Tue, 08/20/2019 4:51 pm EDT
Partly cloudy
Partly cloudy
 Wind from S
Wind: S 10 mph , 17 km/h
Temperature: 84°F , 29°C
Heat Index: 85°F , 29°C
Dew Point: 64°F , 18°C
Humidity: 51%
Barometer: 30.07 inHg , 1018.3 hPa
Clouds: Partly cloudy
Visibility: 10 miles , 16 km
Cloud details: Few Clouds 5000 ft
Partly cloudy 26000 ft
2019/08/20 20:51 KJFK 202051Z 17009KT 10SM FEW050 SCT260 29/18 A3007 RMK AO2 SLP182 T02890183 58010
 
KDXR - Danbury, Connecticut, USA
Distance from station: NNW 42mi, 68km
Updated: Tue, 08/20/2019 4:53 pm EDT
Partly cloudy
Partly cloudy
 Wind from W
Wind: W 8 mph , 13 km/h
Temperature: 86°F , 30°C
Heat Index: 88°F , 31°C
Dew Point: 64°F , 18°C
Humidity: 49%
Barometer: 30.07 inHg , 1018.3 hPa
Clouds: Partly cloudy
Visibility: 10 miles , 16 km
Cloud details: Partly cloudy 6000 ft
2019/08/20 20:53 KDXR 202053Z 26007KT 10SM SCT060 30/18 A3007 RMK AO2 SLP178 T03000178 58010
KHTO - East Hampton, New York, USA
Distance from station: E 43mi, 69km
Updated: Tue, 08/20/2019 5:15 pm EDT
Clear
Clear
 Wind from WSW
Wind: WSW 5 mph , 7 km/h
Temperature: 84°F , 29°C
Heat Index: 84°F , 29°C
Dew Point: 61°F , 16°C
Humidity: 45%
Barometer: 30.06 inHg , 1017.9 hPa
Clouds: Clear
Visibility: 10 miles , 16 km
2019/08/20 21:15 KHTO 202115Z AUTO 25004KT 10SM CLR 29/16 A3006 RMK AO2 T02870159
 
KOXC - Oxford/Waterbury, Connecticut, USA
Distance from station: N 43mi, 70km
Updated: Tue, 08/20/2019 4:51 pm EDT
Few Clouds
Few Clouds
 Wind from WNW
Wind: WNW 3 mph , 6 km/h
Temperature: 86°F , 30°C
Heat Index: 88°F , 31°C
Dew Point: 64°F , 18°C
Humidity: 49%
Barometer: 30.09 inHg , 1019 hPa
Clouds: Few Clouds
Visibility: 10 miles , 16 km
Cloud details: Few Clouds 5500 ft
2019/08/20 20:51 KOXC 202051Z 29003KT 10SM FEW055 30/18 A3009 RMK AO2 SLP192 T03000178 58009
KLGA - Nyc/La Guardia, New York, USA
Distance from station: W 44mi, 70km
Updated: Tue, 08/20/2019 4:51 pm EDT
Mostly cloudy
Mostly cloudy
 Wind from S
Wind: S 10 mph , 17 km/h
Temperature: 88°F , 31°C
Heat Index: 89°F , 32°C
Dew Point: 63°F , 17°C
Humidity: 43%
Barometer: 30.04 inHg , 1017.3 hPa
Clouds: Mostly cloudy
Visibility: 10 miles , 16 km
Cloud details: Few Clouds 5500 ft
Mostly cloudy 25000 ft
2019/08/20 20:51 KLGA 202051Z 18009KT 10SM FEW055 BKN250 31/17 A3004 RMK AO2 SLP173 T03110167 56008
 
KSNC - Chester, Connecticut, USA
Distance from station: NE 47mi, 76km
Updated: Tue, 08/20/2019 5:15 pm EDT
Clear
Clear
 Wind from varies
Wind: varies 5 mph , 7 km/h
Temperature: 86°F , 30°C
Heat Index: 87°F , 31°C
Dew Point: 63°F , 17°C
Humidity: 46%
Barometer: 30.07 inHg , 1018.3 hPa
Clouds: Clear
Visibility: 10 miles , 16 km
2019/08/20 21:15 KSNC 202115Z AUTO VRB04KT 10SM CLR 30/17 A3007 RMK AO2
KMMK - Meriden, Connecticut, USA
Distance from station: NNE 48mi, 77km
Updated: Tue, 08/20/2019 4:53 pm EDT
Clear
Clear
 Wind from varies
Wind: varies 6 mph , 9 km/h
Temperature: 88°F , 31°C
Heat Index: 88°F , 31°C
Dew Point: 61°F , 16°C
Humidity: 40%
Barometer: 30.05 inHg , 1017.6 hPa
Clouds: Clear
Visibility: 10 miles , 16 km
2019/08/20 20:53 KMMK 202053Z AUTO VRB05KT 10SM CLR 31/16 A3005 RMK AO2 SLP172 T03060156 56008
 
KNYC - Nyc/Central Park, New York, USA
Distance from station: W 48mi, 77km
Updated: Tue, 08/20/2019 4:51 pm EDT
Clear
Clear
 Wind from varies
Wind: varies 5 mph , 7 km/h
Temperature: 84°F , 29°C
Heat Index: 85°F , 29°C
Dew Point: 64°F , 18°C
Humidity: 51%
Barometer: 30.08 inHg , 1018.6 hPa
Clouds: Clear
Visibility: 10 miles , 16 km
2019/08/20 20:51 KNYC 202051Z AUTO VRB04KT 10SM CLR 29/18 A3008 RMK AO2 SLP176 T02890178 58007